Time;durP1;ratioP1;P1;durP2;ratioP2;P2;SDS_P1;SDS_P2;PMS_P1;PMS_P2;Temp;Humidity;BMP_temperature;BMP_pressure;BME280_temperature;BME280_humidity;BME280_pressure;Samples;Min_cycle;Max_cycle;Signal;HPM_P1;HPM_P2
2021/04/09 04:01:15;;;;;;;12.10;5.15;;;;;;;3.40;51.09;95327.70;833590;71;33201;-79
2021/04/09 04:16:15;;;;;;;7.97;5.40;;;;;;;4.14;50.54;95339.56;826991;71;32750;-79
2021/04/09 04:31:09;;;;;;;8.15;5.80;;;;;;;7.28;44.84;95348.39;833816;71;30336;-80
2021/04/09 04:46:19;;;;;;;7.58;5.58;;;;;;;9.27;41.36;95358.66;833249;71;32804;-78
2021/04/09 05:01:18;;;;;;;8.48;6.20;;;;;;;9.08;40.34;95388.41;826947;71;32781;-79
2021/04/09 05:16:14;;;;;;;8.43;7.20;;;;;;;10.79;38.79;95393.09;826813;71;32695;-77
2021/04/09 05:31:32;;;;;;;7.00;6.30;;;;;;;13.14;35.41;95405.77;824889;71;31471;-79
2021/04/09 05:46:16;;;;;;;6.10;5.50;;;;;;;15.00;32.53;95427.13;828612;71;32840;-79
2021/04/09 06:01:46;;;;;;;6.25;5.65;;;;;;;16.29;30.68;95428.76;835377;70;32700;-81
2021/04/09 06:17:05;;;;;;;;;;;;;;;;;;;;;
2021/04/09 06:31:30;;;;;;;6.05;5.45;;;;;;;17.56;29.01;95445.74;819962;71;33332;-79
2021/04/09 06:46:40;;;;;;;;;;;;;;;;;;;;;
2021/04/09 07:32:09;;;;;;;;;;;;;;;;;;;;;
2021/04/09 07:46:58;;;;;;;4.22;3.92;;;;;;;18.68;23.58;95482.03;774032;76;33040;-79
2021/04/09 08:01:26;;;;;;;5.30;4.85;;;;;;;18.26;24.49;95483.05;827723;71;31467;-81
2021/04/09 08:16:20;;;;;;;6.42;5.53;;;;;;;18.48;24.37;95480.80;827672;71;31045;-78
2021/04/09 08:31:10;;;;;;;3.40;3.20;;;;;;;19.60;26.08;95483.73;830233;71;30873;-80
2021/04/09 08:46:28;;;;;;;4.12;3.80;;;;;;;21.77;22.50;95466.97;825940;71;33221;-78
2021/04/09 09:01:50;;;;;;;12.18;9.63;;;;;;;20.38;22.52;95480.41;827943;71;33295;-79
2021/04/09 09:16:19;;;;;;;4.35;3.95;;;;;;;20.75;22.25;95467.26;827714;71;29796;-76
2021/04/09 09:31:32;;;;;;;3.95;3.62;;;;;;;20.32;21.48;95479.82;834034;71;31502;-78
2021/04/09 09:46:11;;;;;;;3.75;3.47;;;;;;;20.35;21.59;95465.05;829362;71;30378;-79
2021/04/09 10:01:08;;;;;;;3.75;3.55;;;;;;;20.66;21.46;95458.02;833507;71;30366;-76
2021/04/09 10:16:14;;;;;;;3.55;3.25;;;;;;;20.77;20.38;95442.37;828043;71;31426;-79
2021/04/09 10:31:16;;;;;;;4.42;4.03;;;;;;;20.27;19.22;95428.03;833492;71;29783;-77
2021/04/09 10:46:14;;;;;;;3.87;3.47;;;;;;;20.26;18.87;95429.70;826200;71;30267;-76
2021/04/09 11:01:16;;;;;;;4.15;3.85;;;;;;;17.81;20.81;95408.38;833357;71;32944;-78
2021/04/09 13:01:15;;;;;;;3.83;3.52;;;;;;;17.21;20.99;95309.00;827289;71;31416;-77
2021/04/09 13:16:29;;;;;;;3.02;2.83;;;;;;;18.38;27.67;95290.55;834801;71;32712;-78
2021/04/09 13:31:15;;;;;;;4.10;3.80;;;;;;;19.40;23.30;95281.63;827228;71;32696;-77
2021/04/09 13:46:22;;;;;;;5.08;3.40;;;;;;;20.98;21.35;95264.84;833576;71;32696;-79
2021/04/09 14:01:15;;;;;;;3.75;3.45;;;;;;;21.51;19.00;95260.35;827050;71;32685;-76
2021/04/09 14:16:14;;;;;;;3.00;2.80;;;;;;;18.41;19.98;95264.12;828194;71;32707;-77
2021/04/09 14:31:13;;;;;;;2.95;2.75;;;;;;;16.66;21.18;95257.21;827637;71;32664;-75
2021/04/09 14:46:08;;;;;;;5.47;3.20;;;;;;;15.33;21.84;95251.22;827583;71;29700;-79
2021/04/09 15:01:46;;;;;;;4.12;3.72;;;;;;;14.66;23.24;95246.52;828631;71;32674;-80
2021/04/09 15:16:28;;;;;;;3.77;3.47;;;;;;;14.16;23.22;95237.92;829459;71;32846;-77
2021/04/09 15:31:16;;;;;;;4.05;3.30;;;;;;;13.58;23.94;95243.90;826609;71;33168;-78
2021/04/09 15:46:22;;;;;;;3.52;3.22;;;;;;;13.22;24.76;95243.07;827142;71;32738;-76
2021/04/09 16:01:15;;;;;;;4.05;3.75;;;;;;;12.80;24.75;95237.31;826973;71;32622;-76
2021/04/09 16:16:14;;;;;;;3.47;3.17;;;;;;;12.30;24.99;95237.61;827696;71;33324;-77
2021/04/09 16:31:09;;;;;;;3.15;2.40;;;;;;;11.84;25.02;95236.73;827760;71;29579;-79
2021/04/09 16:46:14;;;;;;;3.77;3.40;;;;;;;11.33;26.21;95229.23;834918;71;32794;-77
2021/04/09 17:01:32;;;;;;;9.48;6.37;;;;;;;10.79;29.54;95220.53;828657;71;30522;-79
